createdAt,value
2018-10-07T00:01:33.264Z,81.30
2018-10-07T00:04:03.466Z,80.43
2018-10-07T00:06:33.388Z,72.10
2018-10-07T00:09:04.241Z,31.13
2018-10-07T00:11:34.475Z,57.87
2018-10-07T00:14:05.087Z,233.63
2018-10-07T00:16:34.966Z,61.23
2018-10-07T00:19:04.590Z,178.13
2018-10-07T00:21:34.886Z,209.97
2018-10-07T00:24:04.848Z,74.60
2018-10-07T00:26:37.422Z,159.77
2018-10-07T00:29:10.600Z,45.27
2018-10-07T00:31:45.351Z,66.87
2018-10-07T00:34:15.867Z,99.03
2018-10-07T00:36:46.209Z,91.63
2018-10-07T00:39:15.808Z,90.13
2018-10-07T00:41:45.383Z,59.70
2018-10-07T00:44:15.740Z,149.80
2018-10-07T00:46:47.625Z,289.97
2018-10-07T00:49:32.392Z,110.47
2018-10-07T00:52:01.814Z,138.30
2018-10-07T00:54:30.922Z,97.30
2018-10-07T00:57:00.183Z,107.97
2018-10-07T00:59:29.662Z,179.37
2018-10-07T01:01:58.952Z,151.50
2018-10-07T01:04:28.109Z,167.57
2018-10-07T01:06:57.754Z,169.37
2018-10-07T01:09:27.511Z,174.57
2018-10-07T01:11:57.876Z,190.43
2018-10-07T01:14:27.850Z,179.53
2018-10-07T01:16:58.211Z,164.37
2018-10-07T01:19:27.840Z,186.93
2018-10-07T01:21:57.608Z,188.40
2018-10-07T01:24:26.940Z,215.70
2018-10-07T01:27:09.297Z,193.50
2018-10-07T01:29:45.194Z,209.77
2018-10-07T01:32:19.476Z,224.03
2018-10-07T01:34:48.911Z,205.57
2018-10-07T01:37:18.366Z,213.07
2018-10-07T01:39:47.266Z,202.57
2018-10-07T01:42:16.526Z,228.00
2018-10-07T01:44:46.121Z,241.60
2018-10-07T01:47:15.381Z,220.43
2018-10-07T01:49:50.319Z,276.80
2018-10-07T01:52:20.450Z,230.33
2018-10-07T01:54:49.668Z,227.10
2018-10-07T01:57:19.062Z,234.77
2018-10-07T01:59:49.915Z,295.80
2018-10-07T02:02:19.178Z,248.80
2018-10-07T02:04:48.569Z,282.63
2018-10-07T02:07:20.210Z,244.17
2018-10-07T02:09:49.860Z,235.60
2018-10-07T02:12:18.914Z,250.53
2018-10-07T02:14:55.698Z,254.63
2018-10-07T02:17:24.861Z,271.37
2018-10-07T02:19:54.028Z,300.87
2018-10-07T02:22:23.915Z,283.67
2018-10-07T02:24:53.525Z,285.93
2018-10-07T02:27:23.152Z,205.13
2018-10-07T02:29:52.500Z,343.57
2018-10-07T02:32:22.672Z,286.07
2018-10-07T02:34:51.798Z,268.77
2018-10-07T02:37:21.197Z,248.70
2018-10-07T02:39:57.898Z,216.07
2018-10-07T02:42:27.075Z,234.77
2018-10-07T02:44:56.441Z,239.27
2018-10-07T02:47:27.018Z,247.90
2018-10-07T02:49:56.637Z,254.93
2018-10-07T02:52:31.069Z,249.80
2018-10-07T02:55:01.216Z,243.10
2018-10-07T02:57:31.478Z,269.67
2018-10-07T03:00:00.740Z,274.73
2018-10-07T03:02:29.974Z,244.27
2018-10-07T03:04:59.187Z,224.77
2018-10-07T03:08:00.737Z,236.97
2018-10-07T03:10:29.688Z,252.33
2018-10-07T03:12:58.729Z,272.93
2018-10-07T03:15:27.982Z,264.17
2018-10-07T03:17:57.333Z,270.77
2018-10-07T03:20:26.757Z,235.00
2018-10-07T03:22:55.919Z,253.97
2018-10-07T03:25:25.126Z,241.63
2018-10-07T03:27:56.922Z,246.73
2018-10-07T03:30:25.994Z,257.37
2018-10-07T03:32:55.549Z,259.10
2018-10-07T03:35:24.791Z,257.40
2018-10-07T03:37:54.058Z,261.80
2018-10-07T03:40:23.272Z,266.40
2018-10-07T03:42:52.218Z,290.00
2018-10-07T03:45:21.708Z,266.07
2018-10-07T03:47:51.523Z,260.47
2018-10-07T03:50:21.568Z,254.03
2018-10-07T03:52:51.978Z,272.50
2018-10-07T03:55:30.989Z,247.23
2018-10-07T03:58:10.043Z,249.50
2018-10-07T04:00:39.388Z,251.87
2018-10-07T04:03:08.597Z,263.17
2018-10-07T04:05:40.219Z,247.33
2018-10-07T04:08:12.041Z,253.70
2018-10-07T04:10:41.151Z,274.07
2018-10-07T04:13:10.208Z,251.97
2018-10-07T04:15:39.529Z,264.40
2018-10-07T04:18:08.846Z,270.33
2018-10-07T04:20:37.988Z,261.30
2018-10-07T04:23:07.792Z,240.40
2018-10-07T04:25:36.805Z,256.07
2018-10-07T04:28:06.008Z,241.80
2018-10-07T04:30:35.197Z,244.97
2018-10-07T04:33:04.530Z,242.77
2018-10-07T04:35:33.580Z,242.07
2018-10-07T04:38:02.487Z,258.57
2018-10-07T04:40:31.376Z,223.23
2018-10-07T04:43:00.311Z,242.90
2018-10-07T04:45:29.229Z,246.10
2018-10-07T04:47:58.221Z,235.33
2018-10-07T04:50:27.740Z,256.77
2018-10-07T04:52:56.676Z,233.97
2018-10-07T04:55:26.310Z,236.93
2018-10-07T04:57:55.536Z,244.73
2018-10-07T05:00:24.757Z,227.57
2018-10-07T05:02:54.090Z,237.40
2018-10-07T05:05:23.170Z,235.50
2018-10-07T05:07:52.187Z,254.13
2018-10-07T05:10:56.730Z,198.30
2018-10-07T05:13:57.365Z,217.77
2018-10-07T05:16:36.130Z,187.30
2018-10-07T05:19:05.577Z,200.57
2018-10-07T05:21:34.749Z,182.10
2018-10-07T05:24:03.736Z,146.90
2018-10-07T05:26:32.799Z,138.37
2018-10-07T05:29:03.226Z,156.37
2018-10-07T05:31:32.363Z,119.93
2018-10-07T05:34:01.405Z,109.73
2018-10-07T05:36:30.841Z,98.70
2018-10-07T05:38:59.939Z,100.20
2018-10-07T05:41:29.169Z,94.73
2018-10-07T05:43:58.400Z,77.60
2018-10-07T05:46:27.536Z,88.50
2018-10-07T05:48:56.532Z,78.20
2018-10-07T05:51:25.550Z,65.63
2018-10-07T05:53:55.910Z,70.17
2018-10-07T05:56:25.061Z,66.50
2018-10-07T05:58:55.906Z,77.90
2018-10-07T06:01:41.513Z,53.93
2018-10-07T06:04:23.067Z,56.27
2018-10-07T06:06:53.340Z,50.27
2018-10-07T06:09:27.219Z,48.10
2018-10-07T06:11:57.278Z,50.57
2018-10-07T06:14:37.370Z,43.63
2018-10-07T06:17:07.011Z,38.40
2018-10-07T06:19:37.031Z,49.57
2018-10-07T06:22:06.511Z,59.30
2018-10-07T06:24:37.013Z,41.00
2018-10-07T06:27:07.257Z,45.00
2018-10-07T06:29:38.260Z,44.37
2018-10-07T06:32:07.251Z,47.53
2018-10-07T06:34:38.792Z,35.43
2018-10-07T06:37:09.335Z,35.33
2018-10-07T06:39:40.375Z,33.83
2018-10-07T06:42:11.503Z,44.93
2018-10-07T06:44:43.841Z,38.00
2018-10-07T06:47:14.433Z,34.90
2018-10-07T06:49:44.042Z,46.03
2018-10-07T06:52:14.924Z,38.13
2018-10-07T06:54:46.479Z,39.53
2018-10-07T06:57:16.022Z,43.33
2018-10-07T06:59:46.421Z,47.87
2018-10-07T07:02:15.611Z,55.50
2018-10-07T07:04:44.670Z,51.57
2018-10-07T07:07:14.521Z,54.83
2018-10-07T07:09:45.101Z,60.73
2018-10-07T07:12:15.823Z,61.53
2018-10-07T07:14:45.058Z,59.20
2018-10-07T07:17:14.455Z,63.97
2018-10-07T07:19:43.660Z,85.57
2018-10-07T07:22:13.290Z,62.83
2018-10-07T07:24:43.655Z,62.27
2018-10-07T07:27:12.606Z,58.73
2018-10-07T07:29:42.104Z,61.23
2018-10-07T07:32:13.310Z,45.63
2018-10-07T07:34:43.751Z,52.23
2018-10-07T07:37:12.842Z,49.83
2018-10-07T07:39:42.404Z,47.00
2018-10-07T07:42:11.868Z,45.57
2018-10-07T07:44:41.867Z,51.30
2018-10-07T07:47:11.487Z,52.47
2018-10-07T07:49:41.623Z,51.20
2018-10-07T07:52:12.477Z,39.17
2018-10-07T07:54:41.552Z,38.23
2018-10-07T07:57:13.366Z,50.67
2018-10-07T07:59:43.360Z,35.53
2018-10-07T08:02:12.274Z,38.37
2018-10-07T08:04:50.968Z,42.03
2018-10-07T08:07:20.576Z,32.43
2018-10-07T08:09:50.190Z,42.77
2018-10-07T08:12:19.180Z,42.13
2018-10-07T08:14:51.225Z,31.40
2018-10-07T08:17:20.673Z,40.37
2018-10-07T08:19:50.427Z,62.03
2018-10-07T08:22:20.088Z,43.23
2018-10-07T08:24:49.370Z,44.57
2018-10-07T08:27:20.383Z,55.03
2018-10-07T08:29:49.629Z,56.47
2018-10-07T08:32:18.918Z,35.00
2018-10-07T08:34:48.654Z,39.90
2018-10-07T08:37:18.721Z,41.93
2018-10-07T08:39:50.021Z,41.40
2018-10-07T08:42:20.284Z,37.87
2018-10-07T08:44:49.465Z,34.67
2018-10-07T08:47:20.485Z,45.97
2018-10-07T08:49:52.399Z,46.57
2018-10-07T08:52:22.688Z,35.77
2018-10-07T08:54:55.451Z,28.10
2018-10-07T08:57:26.984Z,29.53
2018-10-07T08:59:56.239Z,24.23
2018-10-07T09:02:46.002Z,32.20
2018-10-07T09:05:22.561Z,23.03
2018-10-07T09:07:52.062Z,23.23
2018-10-07T09:10:21.540Z,16.90
2018-10-07T09:12:52.570Z,13.07
2018-10-07T09:15:22.462Z,17.43
2018-10-07T09:17:53.713Z,27.27
2018-10-07T09:20:23.468Z,12.83
2018-10-07T09:22:53.181Z,14.60
2018-10-07T09:25:22.497Z,9.73
2018-10-07T09:27:56.078Z,7.17
2018-10-07T09:30:26.453Z,6.70
2018-10-07T09:32:56.276Z,12.07
2018-10-07T09:35:26.240Z,8.83
2018-10-07T09:37:56.929Z,10.27
2018-10-07T09:40:26.485Z,7.30
2018-10-07T09:42:55.560Z,10.10
2018-10-07T09:45:36.551Z,9.70
2018-10-07T09:48:08.307Z,6.33
2018-10-07T09:50:37.836Z,8.93
2018-10-07T09:53:07.412Z,9.77
2018-10-07T09:55:39.034Z,7.67
2018-10-07T09:58:08.087Z,8.70
2018-10-07T10:00:41.272Z,7.23
2018-10-07T10:03:13.349Z,7.00
2018-10-07T10:05:42.623Z,12.23
2018-10-07T10:08:13.012Z,9.03
2018-10-07T10:10:46.067Z,8.00
2018-10-07T10:13:16.193Z,12.43
2018-10-07T10:15:46.204Z,12.20
2018-10-07T10:18:23.131Z,7.60
2018-10-07T10:20:58.684Z,12.40
2018-10-07T10:24:38.373Z,11.33
2018-10-07T10:27:15.989Z,8.90
2018-10-07T10:29:50.539Z,6.90
2018-10-07T10:32:46.629Z,7.50
2018-10-07T10:35:59.638Z,20.50
2018-10-07T10:39:07.826Z,9.97
2018-10-07T10:41:41.842Z,11.50
2018-10-07T10:44:21.524Z,7.80
2018-10-07T10:47:04.466Z,12.50
2018-10-07T10:49:57.669Z,9.23
2018-10-07T10:53:47.463Z,9.20
2018-10-07T10:56:22.194Z,12.63
2018-10-07T11:01:07.770Z,5.80
2018-10-07T11:06:00.050Z,6.83
2018-10-07T11:09:19.090Z,7.83
2018-10-07T11:12:00.830Z,6.93
2018-10-07T11:15:25.729Z,8.10
2018-10-07T11:18:07.329Z,5.97
2018-10-07T11:21:52.928Z,10.53
2018-10-07T11:24:33.742Z,7.17
2018-10-07T11:27:13.701Z,6.60
2018-10-07T11:29:55.226Z,7.13
2018-10-07T11:36:43.093Z,8.63
2018-10-07T11:39:24.628Z,4.27
2018-10-07T11:42:16.564Z,6.30
2018-10-07T11:45:32.039Z,6.80
2018-10-07T11:48:12.397Z,5.47
2018-10-07T11:50:51.785Z,12.07
2018-10-07T11:53:54.043Z,3.80
2018-10-07T11:56:25.078Z,6.73
2018-10-07T11:59:03.690Z,5.20
2018-10-07T12:01:35.202Z,14.90
2018-10-07T12:04:05.464Z,7.50
2018-10-07T12:06:35.254Z,10.57
2018-10-07T12:09:05.963Z,8.23
2018-10-07T12:11:35.719Z,10.40
2018-10-07T12:14:09.206Z,14.67
2018-10-07T12:16:44.124Z,5.07
2018-10-07T12:19:14.802Z,3.77
2018-10-07T12:21:48.097Z,4.93
2018-10-07T12:24:22.540Z,15.00
2018-10-07T12:26:55.960Z,16.07
2018-10-07T12:29:37.384Z,15.93
2018-10-07T12:32:07.645Z,3.63
2018-10-07T12:34:46.300Z,23.37
2018-10-07T12:37:18.856Z,3.37
2018-10-07T12:39:57.220Z,8.83
2018-10-07T12:42:28.433Z,6.90
2018-10-07T12:44:58.595Z,12.13
2018-10-07T12:47:28.652Z,11.20
2018-10-07T12:49:59.661Z,12.00
2018-10-07T12:52:30.561Z,4.47
2018-10-07T12:55:00.199Z,6.30
2018-10-07T12:57:30.464Z,7.90
2018-10-07T13:00:04.192Z,15.10
2018-10-07T13:02:33.780Z,28.00
2018-10-07T13:05:06.297Z,21.50
2018-10-07T13:07:35.599Z,5.77
2018-10-07T13:10:05.619Z,5.67
2018-10-07T13:12:39.398Z,7.30
2018-10-07T13:15:10.677Z,16.27
2018-10-07T13:17:44.162Z,18.37
2018-10-07T13:20:17.637Z,11.60
2018-10-07T13:22:50.106Z,7.63
2018-10-07T13:25:21.769Z,4.90
2018-10-07T13:27:54.299Z,9.63
2018-10-07T13:30:33.564Z,6.13
2018-10-07T13:33:08.884Z,4.60
2018-10-07T13:35:40.784Z,3.00
2018-10-07T13:38:16.492Z,5.40
2018-10-07T13:40:55.637Z,8.07
2018-10-07T13:43:28.108Z,5.93
2018-10-07T13:46:12.280Z,10.53
2018-10-07T13:48:44.153Z,5.70
2018-10-07T13:51:15.421Z,4.57
2018-10-07T13:53:46.054Z,3.50
2018-10-07T13:56:19.638Z,5.73
2018-10-07T13:58:55.813Z,3.33
2018-10-07T14:01:29.873Z,4.77
2018-10-07T14:04:14.484Z,12.23
2018-10-07T14:06:49.560Z,7.97
2018-10-07T14:09:24.594Z,14.10
2018-10-07T14:11:55.219Z,6.97
2018-10-07T14:14:27.869Z,9.10
2018-10-07T14:16:59.017Z,6.73
2018-10-07T14:19:39.947Z,8.70
2018-10-07T14:22:10.492Z,6.57
2018-10-07T14:24:44.510Z,12.23
2018-10-07T14:27:18.545Z,8.23
2018-10-07T14:29:50.785Z,7.00
2018-10-07T14:32:29.078Z,7.90
2018-10-07T14:35:09.663Z,6.43
2018-10-07T14:37:42.252Z,20.17
2018-10-07T14:40:13.652Z,13.90
2018-10-07T14:42:49.020Z,4.27
2018-10-07T14:45:19.445Z,22.83
2018-10-07T14:47:52.089Z,11.30
2018-10-07T14:50:23.178Z,11.07
2018-10-07T14:52:54.096Z,5.83
2018-10-07T14:55:24.316Z,6.47
2018-10-07T14:57:57.413Z,13.97
2018-10-07T15:00:35.973Z,8.60
2018-10-07T15:03:07.084Z,7.10
2018-10-07T15:05:38.641Z,5.70
2018-10-07T15:08:09.330Z,15.37
2018-10-07T15:10:38.701Z,10.30
2018-10-07T15:13:08.323Z,6.60
2018-10-07T15:15:39.341Z,7.40
2018-10-07T15:18:12.216Z,7.80
2018-10-07T15:20:43.165Z,10.20
2018-10-07T15:23:13.760Z,7.87
2018-10-07T15:25:44.778Z,8.03
2018-10-07T15:28:14.219Z,6.70
2018-10-07T15:30:48.935Z,9.70
2018-10-07T15:33:22.477Z,12.10
2018-10-07T15:35:54.749Z,9.80
2018-10-07T15:38:27.392Z,7.40
2018-10-07T15:40:57.265Z,9.13
2018-10-07T15:43:27.485Z,5.17
2018-10-07T15:45:57.173Z,34.17
2018-10-07T15:48:26.716Z,7.27
2018-10-07T15:50:57.012Z,5.90
2018-10-07T15:53:34.582Z,11.83
2018-10-07T15:56:04.244Z,12.20
2018-10-07T15:58:38.281Z,8.47
2018-10-07T16:01:08.940Z,13.20
2018-10-07T16:03:38.974Z,130.10
2018-10-07T16:06:08.676Z,9.87
2018-10-07T16:08:38.312Z,19.70
2018-10-07T16:11:17.462Z,13.93
2018-10-07T16:13:48.149Z,9.50
2018-10-07T16:16:18.940Z,12.43
2018-10-07T16:18:49.073Z,9.03
2018-10-07T16:21:19.038Z,13.23
2018-10-07T16:23:49.497Z,15.87
2018-10-07T16:26:19.405Z,8.60
2018-10-07T16:28:49.279Z,10.73
2018-10-07T16:31:19.415Z,9.57
2018-10-07T16:33:50.309Z,7.60
2018-10-07T16:36:21.390Z,9.00
2018-10-07T16:38:52.186Z,6.70
2018-10-07T16:41:21.330Z,7.33
2018-10-07T16:43:55.537Z,13.70
2018-10-07T16:46:26.712Z,23.07
2018-10-07T16:49:01.381Z,24.25
2018-10-07T16:51:31.609Z,60.60
2018-10-07T16:54:01.700Z,13.50
2018-10-07T16:56:32.177Z,8.53
2018-10-07T17:01:37.405Z,12.30
2018-10-07T17:04:11.270Z,7.90
2018-10-07T17:06:41.165Z,26.33
2018-10-07T17:09:12.190Z,16.07
2018-10-07T17:11:44.766Z,11.00
2018-10-07T17:14:17.184Z,10.27
2018-10-07T17:16:47.260Z,7.83
2018-10-07T17:19:19.042Z,195.77
2018-10-07T17:22:08.299Z,20.03
2018-10-07T17:24:59.057Z,16.23
2018-10-07T17:27:33.015Z,10.77
2018-10-07T17:30:09.891Z,9.30
2018-10-07T17:32:40.624Z,26.47
2018-10-07T17:35:16.295Z,16.07
2018-10-07T17:37:50.785Z,13.13
2018-10-07T17:40:22.301Z,13.80
2018-10-07T17:43:07.868Z,9.80
2018-10-07T17:46:42.825Z,20.20
2018-10-07T17:49:24.107Z,19.43
2018-10-07T17:51:59.273Z,16.67
2018-10-07T17:54:30.163Z,11.97
2018-10-07T17:57:07.690Z,20.10
2018-10-07T17:59:43.184Z,17.00
2018-10-07T18:02:13.591Z,16.80
2018-10-07T18:04:58.839Z,23.63
2018-10-07T18:07:29.772Z,20.23
2018-10-07T18:10:01.079Z,24.40
2018-10-07T18:12:33.079Z,19.20
2018-10-07T18:15:05.830Z,19.30
2018-10-07T18:17:36.532Z,27.37
2018-10-07T18:20:07.948Z,14.13
2018-10-07T18:22:39.640Z,38.23
2018-10-07T18:25:19.930Z,11.73
2018-10-07T18:27:55.095Z,16.93
2018-10-07T18:30:34.172Z,16.00
2018-10-07T18:33:09.701Z,13.27
2018-10-07T18:35:53.691Z,7.90
2018-10-07T18:38:31.953Z,11.83
2018-10-07T18:41:09.653Z,15.10
2018-10-07T18:43:46.253Z,10.77
2018-10-07T18:46:26.831Z,15.30
2018-10-07T18:49:10.763Z,12.57
2018-10-07T18:51:45.203Z,15.57
2018-10-07T18:54:21.523Z,26.37
2018-10-07T18:57:07.701Z,9.17
2018-10-07T18:59:46.570Z,11.73
2018-10-07T19:02:22.650Z,9.60
2018-10-07T19:04:54.194Z,12.87
2018-10-07T19:07:24.692Z,9.97
2018-10-07T19:09:57.474Z,10.63
2018-10-07T19:12:32.412Z,10.10
2018-10-07T19:15:03.586Z,9.83
2018-10-07T19:17:47.205Z,15.93
2018-10-07T19:20:18.559Z,12.30
2018-10-07T19:23:04.164Z,10.90
2018-10-07T19:25:52.210Z,14.30
2018-10-07T19:28:24.332Z,12.40
2018-10-07T19:32:27.021Z,20.40
2018-10-07T19:38:04.312Z,14.10
2018-10-07T19:40:41.037Z,26.00
2018-10-07T19:43:25.135Z,14.67
2018-10-07T19:45:57.436Z,12.23
2018-10-07T19:48:31.225Z,13.43
2018-10-07T19:51:11.311Z,15.80
2018-10-07T19:53:52.397Z,17.30
2018-10-07T19:56:26.914Z,24.47
2018-10-07T19:59:09.255Z,14.40
2018-10-07T20:01:46.552Z,8.87
2018-10-07T20:04:18.457Z,18.93
2018-10-07T20:06:48.824Z,11.93
2018-10-07T20:09:21.634Z,8.53
2018-10-07T20:11:54.104Z,14.17
2018-10-07T20:14:26.327Z,13.27
2018-10-07T20:17:02.867Z,10.90
2018-10-07T20:19:34.570Z,11.60
2018-10-07T20:22:17.343Z,16.63
2018-10-07T20:24:52.805Z,15.30
2018-10-07T20:27:25.202Z,9.87
2018-10-07T20:29:57.661Z,11.60
2018-10-07T20:32:32.087Z,10.60
2018-10-07T20:35:07.812Z,12.33
2018-10-07T20:37:56.685Z,10.20
2018-10-07T20:40:28.713Z,18.07
2018-10-07T20:43:04.084Z,17.53
2018-10-07T20:45:41.805Z,12.30
2018-10-07T20:48:16.507Z,11.70
2018-10-07T20:50:51.869Z,13.43
2018-10-07T20:53:25.635Z,8.73
2018-10-07T20:56:00.038Z,33.87
2018-10-07T20:59:59.626Z,17.07
2018-10-07T21:02:31.323Z,10.67
2018-10-07T21:05:02.910Z,8.90
2018-10-07T21:07:35.206Z,14.67
2018-10-07T21:10:08.087Z,13.00
2018-10-07T21:12:41.363Z,21.10
2018-10-07T21:15:19.092Z,31.03
2018-10-07T21:17:58.135Z,17.43
2018-10-07T21:20:44.513Z,19.80
2018-10-07T21:23:26.728Z,18.73
2018-10-07T21:25:57.546Z,9.27
2018-10-07T21:28:28.414Z,12.87
2018-10-07T21:30:58.235Z,10.00
2018-10-07T21:33:28.515Z,24.13
2018-10-07T21:36:00.031Z,15.53
2018-10-07T21:38:31.748Z,12.73
2018-10-07T21:41:02.329Z,20.33
2018-10-07T21:43:34.139Z,13.13
2018-10-07T21:46:05.824Z,18.30
2018-10-07T21:48:35.575Z,14.33
2018-10-07T21:51:06.406Z,16.17
2018-10-07T21:53:38.334Z,21.87
2018-10-07T21:56:12.649Z,20.10
2018-10-07T21:58:42.932Z,19.63
2018-10-07T22:01:12.264Z,28.40
2018-10-07T22:03:41.505Z,22.00
2018-10-07T22:06:11.499Z,18.20
2018-10-07T22:08:41.891Z,19.20
2018-10-07T22:11:11.716Z,17.63
2018-10-07T22:13:41.137Z,16.20
2018-10-07T22:16:11.288Z,63.30
2018-10-07T22:18:40.476Z,19.23
2018-10-07T22:21:09.731Z,29.77
2018-10-07T22:23:39.358Z,17.47
2018-10-07T22:26:08.517Z,20.87
2018-10-07T22:28:37.743Z,17.23
2018-10-07T22:31:08.620Z,18.93
2018-10-07T22:33:38.231Z,38.77
2018-10-07T22:36:08.253Z,18.20
2018-10-07T22:38:38.184Z,17.23
2018-10-07T22:41:07.873Z,21.23
2018-10-07T22:43:38.783Z,24.90
2018-10-07T22:46:09.335Z,29.50
2018-10-07T22:48:42.638Z,20.47
2018-10-07T22:51:12.424Z,22.30
2018-10-07T22:53:41.973Z,16.13
2018-10-07T22:56:13.271Z,45.30
2018-10-07T22:58:44.078Z,27.60
2018-10-07T23:01:14.515Z,17.80
2018-10-07T23:03:45.415Z,20.83
2018-10-07T23:06:14.850Z,25.57
2018-10-07T23:08:50.002Z,28.10
2018-10-07T23:11:22.347Z,27.53
2018-10-07T23:13:56.782Z,21.73
2018-10-07T23:16:26.028Z,24.50
2018-10-07T23:18:55.102Z,24.83
2018-10-07T23:21:29.076Z,23.93
2018-10-07T23:24:01.034Z,26.97
2018-10-07T23:26:34.447Z,21.13
2018-10-07T23:29:04.251Z,10.30
2018-10-07T23:31:33.986Z,20.87
2018-10-07T23:34:03.107Z,17.30
2018-10-07T23:36:32.197Z,23.17
2018-10-07T23:39:01.749Z,16.20
2018-10-07T23:41:31.367Z,30.80
2018-10-07T23:44:01.212Z,23.67
2018-10-07T23:46:31.622Z,28.07
2018-10-07T23:49:01.087Z,15.50
2018-10-07T23:51:31.956Z,12.13
2018-10-07T23:54:01.456Z,17.97
2018-10-07T23:56:31.002Z,13.47
2018-10-07T23:59:00.092Z,15.20
